createdAt,value
2023-10-05T00:02:12.785Z,14.00
2023-10-05T00:04:43.768Z,14.00
2023-10-05T00:07:28.514Z,14.00
2023-10-05T00:09:58.782Z,13.90
2023-10-05T00:12:29.049Z,13.90
2023-10-05T00:15:05.076Z,13.90
2023-10-05T00:17:34.123Z,13.90
2023-10-05T00:20:01.427Z,13.90
2023-10-05T00:22:28.744Z,13.90
2023-10-05T00:24:55.937Z,13.90
2023-10-05T00:27:23.386Z,13.90
2023-10-05T00:29:57.887Z,13.90
2023-10-05T00:32:35.944Z,13.90
2023-10-05T00:35:19.795Z,13.90
2023-10-05T00:37:47.653Z,13.90
2023-10-05T00:40:25.095Z,13.90
2023-10-05T00:42:52.589Z,13.90
2023-10-05T00:45:26.151Z,13.90
2023-10-05T00:47:59.589Z,13.90
2023-10-05T00:50:27.007Z,13.90
2023-10-05T00:52:54.566Z,13.90
2023-10-05T00:55:21.829Z,13.90
2023-10-05T00:57:50.522Z,13.90
2023-10-05T01:00:38.024Z,13.90
2023-10-05T01:03:20.874Z,13.90
2023-10-05T01:06:10.956Z,13.90
2023-10-05T01:08:51.627Z,13.90
2023-10-05T01:11:27.691Z,13.90
2023-10-05T01:14:02.223Z,13.90
2023-10-05T01:16:33.817Z,14.00
2023-10-05T01:19:09.922Z,14.00
2023-10-05T01:21:38.586Z,14.00
2023-10-05T01:24:06.194Z,14.00
2023-10-05T01:26:38.692Z,14.10
2023-10-05T01:29:06.612Z,14.10
2023-10-05T01:31:34.215Z,14.00
2023-10-05T01:34:03.390Z,14.10
2023-10-05T01:36:30.689Z,14.10
2023-10-05T01:39:04.240Z,14.10
2023-10-05T01:41:31.938Z,14.00
2023-10-05T01:44:01.865Z,14.10
2023-10-05T01:46:32.964Z,14.10
2023-10-05T01:49:01.385Z,14.00
2023-10-05T01:51:30.142Z,14.10
2023-10-05T01:54:01.196Z,14.00
2023-10-05T01:56:28.984Z,14.00
2023-10-05T01:58:56.458Z,14.00
2023-10-05T02:01:24.173Z,14.00
2023-10-05T02:03:55.847Z,14.00
2023-10-05T02:06:23.352Z,14.00
2023-10-05T02:08:50.855Z,14.00
2023-10-05T02:11:26.034Z,14.00
2023-10-05T02:13:54.020Z,14.00
2023-10-05T02:16:23.139Z,14.00
2023-10-05T02:18:51.172Z,14.00
2023-10-05T02:21:41.298Z,14.00
2023-10-05T02:24:18.012Z,14.00
2023-10-05T02:27:00.852Z,14.00
2023-10-05T02:29:30.134Z,14.00
2023-10-05T02:31:57.755Z,13.90
2023-10-05T02:34:29.108Z,13.90
2023-10-05T02:36:56.597Z,13.90
2023-10-05T02:39:23.933Z,13.90
2023-10-05T02:41:55.607Z,13.90
2023-10-05T02:44:31.622Z,13.90
2023-10-05T02:47:00.573Z,13.90
2023-10-05T02:49:28.451Z,13.90
2023-10-05T02:51:56.467Z,13.90
2023-10-05T02:54:24.144Z,13.80
2023-10-05T02:56:55.436Z,13.80
2023-10-05T02:59:27.891Z,13.90
2023-10-05T03:01:56.590Z,13.80
2023-10-05T03:04:23.938Z,13.80
2023-10-05T03:06:54.598Z,13.80
2023-10-05T03:09:23.394Z,13.80
2023-10-05T03:11:53.470Z,13.80
2023-10-05T03:14:22.885Z,13.80
2023-10-05T03:16:58.135Z,13.80
2023-10-05T03:19:26.221Z,13.80
2023-10-05T03:21:54.538Z,13.80
2023-10-05T03:24:26.177Z,13.80
2023-10-05T03:26:53.732Z,13.80
2023-10-05T03:29:23.578Z,13.80
2023-10-05T03:32:15.390Z,13.80
2023-10-05T03:34:57.433Z,13.80
2023-10-05T03:37:26.197Z,13.80
2023-10-05T03:39:54.272Z,13.80
2023-10-05T03:42:24.655Z,13.90
2023-10-05T03:45:05.428Z,13.80
2023-10-05T03:47:33.094Z,13.90
2023-10-05T03:50:00.218Z,13.90
2023-10-05T03:52:34.419Z,13.90
2023-10-05T03:55:04.028Z,13.90
2023-10-05T03:57:32.606Z,13.90
2023-10-05T04:00:01.797Z,13.90
2023-10-05T04:02:30.379Z,13.90
2023-10-05T04:05:00.167Z,13.90
2023-10-05T04:07:29.899Z,13.90
2023-10-05T04:10:03.473Z,13.90
2023-10-05T04:12:34.000Z,13.90
2023-10-05T04:15:13.372Z,14.00
2023-10-05T04:17:40.971Z,13.90
2023-10-05T04:20:18.922Z,14.00
2023-10-05T04:22:49.312Z,14.00
2023-10-05T04:25:18.189Z,14.00
2023-10-05T04:27:50.251Z,14.00
2023-10-05T04:30:22.957Z,14.00
2023-10-05T04:32:50.372Z,14.00
2023-10-05T04:35:30.298Z,14.00
2023-10-05T04:37:58.740Z,14.00
2023-10-05T04:40:26.752Z,14.00
2023-10-05T04:42:53.992Z,14.10
2023-10-05T04:45:25.113Z,14.10
2023-10-05T04:48:00.479Z,14.00
2023-10-05T04:50:28.180Z,14.10
2023-10-05T04:52:56.236Z,14.10
2023-10-05T04:55:33.635Z,14.10
2023-10-05T04:58:24.713Z,14.10
2023-10-05T05:01:04.658Z,14.10
2023-10-05T05:03:55.085Z,14.10
2023-10-05T05:06:22.227Z,14.10
2023-10-05T05:08:51.623Z,14.20
2023-10-05T05:11:22.599Z,14.20
2023-10-05T05:13:52.835Z,14.20
2023-10-05T05:16:20.684Z,14.20
2023-10-05T05:18:49.567Z,14.20
2023-10-05T05:21:16.688Z,14.20
2023-10-05T05:23:48.916Z,14.20
2023-10-05T05:26:16.108Z,14.30
2023-10-05T05:28:45.193Z,14.20
2023-10-05T05:31:18.422Z,14.30
2023-10-05T05:33:46.156Z,14.30
2023-10-05T05:36:14.390Z,14.30
2023-10-05T05:38:41.985Z,14.30
2023-10-05T05:41:12.909Z,14.30
2023-10-05T05:43:41.230Z,14.30
2023-10-05T05:46:14.050Z,14.30
2023-10-05T05:48:45.087Z,14.30
2023-10-05T05:51:16.558Z,14.30
2023-10-05T05:53:49.894Z,14.30
2023-10-05T05:56:30.483Z,14.40
2023-10-05T05:58:57.976Z,14.40
2023-10-05T06:01:25.257Z,14.40
2023-10-05T06:03:52.705Z,14.40
2023-10-05T06:06:22.689Z,14.30
2023-10-05T06:08:50.669Z,14.30
2023-10-05T06:11:18.122Z,14.30
2023-10-05T06:13:47.519Z,14.30
2023-10-05T06:16:15.903Z,14.30
2023-10-05T06:18:45.058Z,14.40
2023-10-05T06:21:12.906Z,14.40
2023-10-05T06:23:40.129Z,14.30
2023-10-05T06:26:08.088Z,14.30
2023-10-05T06:28:35.142Z,14.30
2023-10-05T06:31:05.300Z,14.30
2023-10-05T06:33:34.468Z,14.30
2023-10-05T06:36:03.632Z,14.30
2023-10-05T06:38:31.923Z,14.30
2023-10-05T06:40:59.120Z,14.30
2023-10-05T06:43:28.128Z,14.30
2023-10-05T06:45:55.422Z,14.30
2023-10-05T06:48:22.522Z,14.30
2023-10-05T06:50:49.672Z,14.30
2023-10-05T06:53:17.025Z,14.30
2023-10-05T06:55:44.649Z,14.40
2023-10-05T06:58:14.839Z,14.40
2023-10-05T07:00:42.028Z,14.40
2023-10-05T07:03:12.551Z,14.40
2023-10-05T07:05:41.447Z,14.40
2023-10-05T07:08:09.006Z,14.40
2023-10-05T07:10:36.156Z,14.40
2023-10-05T07:13:03.635Z,14.40
2023-10-05T07:15:31.580Z,14.40
2023-10-05T07:18:00.719Z,14.40
2023-10-05T07:20:29.838Z,14.40
2023-10-05T07:22:57.661Z,14.40
2023-10-05T07:25:25.095Z,14.40
2023-10-05T07:27:52.496Z,14.40
2023-10-05T07:30:19.661Z,14.40
2023-10-05T07:32:50.619Z,14.40
2023-10-05T07:35:22.821Z,14.40
2023-10-05T07:37:50.889Z,14.40
2023-10-05T07:40:18.092Z,14.40
2023-10-05T07:42:45.355Z,14.40
2023-10-05T07:48:01.638Z,14.40
2023-10-05T07:50:29.033Z,14.40
2023-10-05T07:52:59.133Z,14.40
2023-10-05T07:55:26.639Z,14.40
2023-10-05T07:57:54.236Z,14.40
2023-10-05T08:00:21.779Z,14.40
2023-10-05T08:02:49.314Z,14.40
2023-10-05T08:05:19.575Z,14.50
2023-10-05T08:07:46.788Z,14.50
2023-10-05T08:10:17.380Z,14.50
2023-10-05T08:12:45.337Z,14.50
2023-10-05T08:15:18.092Z,14.50
2023-10-05T08:17:50.101Z,14.60
2023-10-05T08:20:22.221Z,14.60
2023-10-05T08:22:51.955Z,14.60
2023-10-05T08:25:19.224Z,14.60
2023-10-05T08:27:49.682Z,14.60
2023-10-05T08:30:16.845Z,14.60
2023-10-05T08:32:49.596Z,14.60
2023-10-05T08:35:20.301Z,14.60
2023-10-05T08:37:54.927Z,14.60
2023-10-05T08:40:37.298Z,14.60
2023-10-05T08:43:12.532Z,14.60
2023-10-05T08:45:53.451Z,14.70
2023-10-05T08:48:30.481Z,14.70
2023-10-05T08:51:12.630Z,14.70
2023-10-05T08:53:44.848Z,14.70
2023-10-05T08:56:15.528Z,14.80
2023-10-05T08:58:47.614Z,14.70
2023-10-05T09:01:22.788Z,14.80
2023-10-05T09:03:55.445Z,14.80
2023-10-05T09:06:22.803Z,14.80
2023-10-05T09:08:54.455Z,14.80
2023-10-05T09:11:28.066Z,14.90
2023-10-05T09:13:55.293Z,14.90
2023-10-05T09:16:23.948Z,15.00
2023-10-05T09:18:53.013Z,15.00
2023-10-05T09:21:20.908Z,15.10
2023-10-05T09:23:48.921Z,15.10
2023-10-05T09:26:35.395Z,15.20
2023-10-05T09:29:21.760Z,15.20
2023-10-05T09:31:52.479Z,15.20
2023-10-05T09:34:21.527Z,15.20
2023-10-05T09:36:48.742Z,15.30
2023-10-05T09:39:16.309Z,15.30
2023-10-05T09:41:44.297Z,15.30
2023-10-05T09:44:13.639Z,15.40
2023-10-05T09:46:41.007Z,15.40
2023-10-05T09:49:10.635Z,15.50
2023-10-05T09:51:38.307Z,15.50
2023-10-05T09:54:10.137Z,15.50
2023-10-05T09:56:44.219Z,15.50
2023-10-05T09:59:17.746Z,15.60
2023-10-05T10:01:46.815Z,15.60
2023-10-05T10:04:30.419Z,15.60
2023-10-05T10:07:00.192Z,15.60
2023-10-05T10:09:28.514Z,15.60
2023-10-05T10:12:02.106Z,15.70
2023-10-05T10:14:30.353Z,15.70
2023-10-05T10:17:03.818Z,15.70
2023-10-05T10:19:44.771Z,15.70
2023-10-05T10:22:14.168Z,15.70
2023-10-05T10:24:41.771Z,15.80
2023-10-05T10:27:14.538Z,15.80
2023-10-05T10:30:00.501Z,15.80
2023-10-05T10:32:34.014Z,15.80
2023-10-05T10:35:27.829Z,15.90
2023-10-05T10:38:00.583Z,15.90
2023-10-05T10:40:29.886Z,16.00
2023-10-05T10:43:07.465Z,16.10
2023-10-05T10:45:42.708Z,16.10
2023-10-05T10:48:14.472Z,16.20
2023-10-05T10:50:42.457Z,16.20
2023-10-05T10:53:19.403Z,16.30
2023-10-05T10:55:49.297Z,16.30
2023-10-05T10:58:22.669Z,16.40
2023-10-05T11:00:57.808Z,16.40
2023-10-05T11:03:32.163Z,16.40
2023-10-05T11:05:59.661Z,16.40
2023-10-05T11:08:32.060Z,16.40
2023-10-05T11:11:11.503Z,16.50
2023-10-05T11:13:45.198Z,16.50
2023-10-05T11:16:13.141Z,16.60
2023-10-05T11:18:52.185Z,16.60
2023-10-05T11:21:25.183Z,16.60
2023-10-05T11:24:00.212Z,16.60
2023-10-05T11:26:54.646Z,16.60
2023-10-05T11:29:22.938Z,16.60
2023-10-05T11:32:26.911Z,16.60
2023-10-05T11:35:17.242Z,16.60
2023-10-05T11:37:34.238Z,16.60
2023-10-05T11:40:02.704Z,16.60
2023-10-05T11:42:35.983Z,16.60
2023-10-05T11:45:14.308Z,16.60
2023-10-05T11:47:47.205Z,16.60
2023-10-05T11:50:26.069Z,16.60
2023-10-05T11:52:57.478Z,16.60
2023-10-05T11:55:25.834Z,16.70
2023-10-05T11:57:54.126Z,16.70
2023-10-05T12:00:25.718Z,16.70
2023-10-05T12:02:54.035Z,16.70
2023-10-05T12:05:21.456Z,16.80
2023-10-05T12:07:48.805Z,16.70
2023-10-05T12:10:16.157Z,16.70
2023-10-05T12:12:45.093Z,16.80
2023-10-05T12:15:14.881Z,16.80
2023-10-05T12:17:45.602Z,16.80
2023-10-05T12:20:16.764Z,16.90
2023-10-05T12:22:45.055Z,17.00
2023-10-05T12:25:17.373Z,17.00
2023-10-05T12:27:44.672Z,17.10
2023-10-05T12:30:17.536Z,17.20
2023-10-05T12:32:45.252Z,17.30
2023-10-05T12:35:15.641Z,17.30
2023-10-05T12:37:46.103Z,17.40
2023-10-05T12:40:19.944Z,17.40
2023-10-05T12:43:13.470Z,17.40
2023-10-05T12:45:41.141Z,17.40
2023-10-05T12:48:08.662Z,17.50
2023-10-05T12:50:36.310Z,17.50
2023-10-05T12:53:05.049Z,17.50
2023-10-05T12:55:32.154Z,17.60
2023-10-05T12:57:59.585Z,17.60
2023-10-05T13:00:33.232Z,17.70
2023-10-05T13:03:03.497Z,17.70
2023-10-05T13:05:35.780Z,17.70
2023-10-05T13:08:03.205Z,17.80
2023-10-05T13:10:34.471Z,17.90
2023-10-05T13:13:11.544Z,18.00
2023-10-05T13:15:39.867Z,18.10
2023-10-05T13:18:22.957Z,18.20
2023-10-05T13:20:56.400Z,18.40
2023-10-05T13:23:26.465Z,18.60
2023-10-05T13:25:54.661Z,18.90
2023-10-05T13:28:23.102Z,19.20
2023-10-05T13:30:52.425Z,19.40
2023-10-05T13:33:23.313Z,19.60
2023-10-05T13:35:52.005Z,19.80
2023-10-05T13:38:21.207Z,20.00
2023-10-05T13:41:08.819Z,20.20
2023-10-05T13:43:38.585Z,20.40
2023-10-05T13:46:14.598Z,20.70
2023-10-05T13:48:43.188Z,20.80
2023-10-05T13:51:17.465Z,21.00
2023-10-05T13:53:49.000Z,21.20
2023-10-05T13:56:16.617Z,21.20
2023-10-05T13:58:48.153Z,21.30
2023-10-05T14:01:18.805Z,21.40
2023-10-05T14:03:46.797Z,21.50
2023-10-05T14:06:14.711Z,21.70
2023-10-05T14:08:47.980Z,21.90
2023-10-05T14:11:15.523Z,22.00
2023-10-05T14:13:47.150Z,22.00
2023-10-05T14:16:15.508Z,22.10
2023-10-05T14:18:43.466Z,22.20
2023-10-05T14:21:11.283Z,22.40
2023-10-05T14:23:38.409Z,22.50
2023-10-05T14:26:05.606Z,22.60
2023-10-05T14:28:33.681Z,22.70
2023-10-05T14:31:00.861Z,22.80
2023-10-05T14:33:28.998Z,22.80
2023-10-05T14:35:59.099Z,22.70
2023-10-05T14:38:27.125Z,22.50
2023-10-05T14:40:56.019Z,22.30
2023-10-05T14:43:32.264Z,22.10
2023-10-05T14:46:01.486Z,21.80
2023-10-05T14:48:32.221Z,21.70
2023-10-05T14:51:05.059Z,21.40
2023-10-05T14:53:33.457Z,21.20
2023-10-05T14:56:01.635Z,21.00
2023-10-05T14:58:30.672Z,20.70
2023-10-05T15:00:58.352Z,20.50
2023-10-05T15:03:26.833Z,20.30
2023-10-05T15:05:54.163Z,20.10
2023-10-05T15:08:21.271Z,19.80
2023-10-05T15:10:48.399Z,19.70
2023-10-05T15:13:16.333Z,19.50
2023-10-05T15:15:44.819Z,19.50
2023-10-05T15:18:12.212Z,19.40
2023-10-05T15:20:41.745Z,19.30
2023-10-05T15:23:11.138Z,19.20
2023-10-05T15:25:41.675Z,19.10
2023-10-05T15:28:13.999Z,19.00
2023-10-05T15:30:41.464Z,18.90
2023-10-05T15:33:09.245Z,18.80
2023-10-05T15:35:36.811Z,18.80
2023-10-05T15:38:07.502Z,18.60
2023-10-05T15:40:37.402Z,18.60
2023-10-05T15:43:06.072Z,18.50
2023-10-05T15:45:36.296Z,18.40
2023-10-05T15:48:14.284Z,18.40
2023-10-05T15:50:44.998Z,18.30
2023-10-05T15:53:12.102Z,18.20
2023-10-05T15:55:39.245Z,18.10
2023-10-05T15:58:11.147Z,18.10
2023-10-05T16:00:38.358Z,17.90
2023-10-05T16:03:06.361Z,17.90
2023-10-05T16:05:44.271Z,17.80
2023-10-05T16:08:11.772Z,17.80
2023-10-05T16:10:43.900Z,17.70
2023-10-05T16:13:12.635Z,17.60
2023-10-05T16:15:41.594Z,17.50
2023-10-05T16:18:09.547Z,17.40
2023-10-05T16:20:44.480Z,17.40
2023-10-05T16:23:14.369Z,17.30
2023-10-05T16:25:41.886Z,17.30
2023-10-05T16:28:10.275Z,17.30
2023-10-05T16:30:38.065Z,17.20
2023-10-05T16:33:07.586Z,17.20
2023-10-05T16:35:35.008Z,17.20
2023-10-05T16:38:02.463Z,17.10
2023-10-05T16:40:30.845Z,17.10
2023-10-05T16:42:59.829Z,17.10
2023-10-05T16:45:27.440Z,17.00
2023-10-05T16:47:58.297Z,17.00
2023-10-05T16:50:26.726Z,16.90
2023-10-05T16:52:55.032Z,16.80
2023-10-05T16:55:22.537Z,16.80
2023-10-05T16:57:52.471Z,16.70
2023-10-05T17:00:28.933Z,16.70
2023-10-05T17:02:56.749Z,16.60
2023-10-05T17:05:27.168Z,16.60
2023-10-05T17:07:59.976Z,16.50
2023-10-05T17:10:27.846Z,16.50
2023-10-05T17:12:55.370Z,16.50
2023-10-05T17:15:23.435Z,16.40
2023-10-05T17:17:51.669Z,16.40
2023-10-05T17:20:19.177Z,16.30
2023-10-05T17:22:46.324Z,16.20
2023-10-05T17:25:13.666Z,16.20
2023-10-05T17:27:40.944Z,16.10
2023-10-05T17:30:08.438Z,16.00
2023-10-05T17:32:35.847Z,16.00
2023-10-05T17:35:03.050Z,15.90
2023-10-05T17:37:30.568Z,15.90
2023-10-05T17:39:58.278Z,15.80
2023-10-05T17:42:26.488Z,15.70
2023-10-05T17:44:54.255Z,15.60
2023-10-05T17:47:24.313Z,15.60
2023-10-05T17:49:52.928Z,15.50
2023-10-05T17:52:23.283Z,15.40
2023-10-05T17:54:50.364Z,15.40
2023-10-05T17:57:19.314Z,15.30
2023-10-05T17:59:49.016Z,15.30
2023-10-05T18:02:20.132Z,15.20
2023-10-05T18:04:47.445Z,15.10
2023-10-05T18:07:14.509Z,15.10
2023-10-05T18:09:41.711Z,15.10
2023-10-05T18:12:09.752Z,15.10
2023-10-05T18:14:37.487Z,15.00
2023-10-05T18:17:06.751Z,14.90
2023-10-05T18:19:36.780Z,14.90
2023-10-05T18:22:05.527Z,14.80
2023-10-05T18:24:32.837Z,14.80
2023-10-05T18:26:59.885Z,14.70
2023-10-05T18:29:27.330Z,14.60
2023-10-05T18:31:54.660Z,14.60
2023-10-05T18:34:24.213Z,14.50
2023-10-05T18:36:51.585Z,14.50
2023-10-05T18:39:18.520Z,14.40
2023-10-05T18:41:47.458Z,14.30
2023-10-05T18:44:14.527Z,14.30
2023-10-05T18:46:41.860Z,14.10
2023-10-05T18:49:10.915Z,14.10
2023-10-05T18:51:38.295Z,14.00
2023-10-05T18:54:06.397Z,13.90
2023-10-05T18:56:33.987Z,13.90
2023-10-05T18:59:04.178Z,13.80
2023-10-05T19:01:31.850Z,13.80
2023-10-05T19:03:59.372Z,13.70
2023-10-05T19:06:26.853Z,13.70
2023-10-05T19:08:55.137Z,13.60
2023-10-05T19:11:22.741Z,13.50
2023-10-05T19:13:52.514Z,13.60
2023-10-05T19:16:20.574Z,13.50
2023-10-05T19:18:48.027Z,13.50
2023-10-05T19:21:16.470Z,13.50
2023-10-05T19:23:44.345Z,13.40
2023-10-05T19:26:11.774Z,13.40
2023-10-05T19:28:38.920Z,13.40
2023-10-05T19:31:06.233Z,13.30
2023-10-05T19:33:33.697Z,13.30
2023-10-05T19:36:01.081Z,13.20
2023-10-05T19:38:28.408Z,13.20
2023-10-05T19:40:55.689Z,13.20
2023-10-05T19:43:23.293Z,13.10
2023-10-05T19:45:50.517Z,13.10
2023-10-05T19:48:17.849Z,13.10
2023-10-05T19:50:45.579Z,13.00
2023-10-05T19:53:14.432Z,13.00
2023-10-05T19:55:41.780Z,12.90
2023-10-05T19:58:11.587Z,12.80
2023-10-05T20:00:38.832Z,12.80
2023-10-05T20:03:06.628Z,12.80
2023-10-05T20:05:38.184Z,12.80
2023-10-05T20:08:06.390Z,12.80
2023-10-05T20:10:34.585Z,12.80
2023-10-05T20:13:06.537Z,12.90
2023-10-05T20:15:43.944Z,12.90
2023-10-05T20:18:11.467Z,12.90
2023-10-05T20:20:41.437Z,12.90
2023-10-05T20:23:08.913Z,13.00
2023-10-05T20:25:41.272Z,13.00
2023-10-05T20:28:10.175Z,13.10
2023-10-05T20:30:37.906Z,13.10
2023-10-05T20:33:05.925Z,13.10
2023-10-05T20:35:33.353Z,13.10
2023-10-05T20:38:00.767Z,13.20
2023-10-05T20:40:30.328Z,13.20
2023-10-05T20:42:57.602Z,13.20
2023-10-05T20:45:25.191Z,13.20
2023-10-05T20:47:52.559Z,13.30
2023-10-05T20:50:19.792Z,13.30
2023-10-05T20:52:47.107Z,13.30
2023-10-05T20:55:16.335Z,13.30
2023-10-05T20:57:44.346Z,13.40
2023-10-05T21:00:11.821Z,13.40
2023-10-05T21:02:39.688Z,13.40
2023-10-05T21:05:06.935Z,13.40
2023-10-05T21:07:33.990Z,13.50
2023-10-05T21:10:00.983Z,13.40
2023-10-05T21:12:28.105Z,13.50
2023-10-05T21:14:55.539Z,13.50
2023-10-05T21:17:24.269Z,13.60
2023-10-05T21:19:51.978Z,13.60
2023-10-05T21:22:21.659Z,13.60
2023-10-05T21:24:48.947Z,13.60
2023-10-05T21:27:16.348Z,13.60
2023-10-05T21:29:43.632Z,13.60
2023-10-05T21:32:10.829Z,13.70
2023-10-05T21:34:38.047Z,13.70
2023-10-05T21:37:06.355Z,13.70
2023-10-05T21:39:34.564Z,13.70
2023-10-05T21:42:02.430Z,13.80
2023-10-05T21:44:29.668Z,13.80
2023-10-05T21:46:56.894Z,13.80
2023-10-05T21:49:24.730Z,13.80
2023-10-05T21:51:52.909Z,13.80
2023-10-05T21:54:20.013Z,13.80
2023-10-05T21:56:48.041Z,13.80
2023-10-05T21:59:16.762Z,13.80
2023-10-05T22:01:45.952Z,13.80
2023-10-05T22:04:13.191Z,13.80
2023-10-05T22:06:40.242Z,13.80
2023-10-05T22:09:07.488Z,13.80
2023-10-05T22:11:36.523Z,13.80
2023-10-05T22:14:03.878Z,13.80
2023-10-05T22:16:32.034Z,13.80
2023-10-05T22:18:59.596Z,13.80
2023-10-05T22:21:26.657Z,13.70
2023-10-05T22:23:53.830Z,13.70
2023-10-05T22:26:21.046Z,13.80
2023-10-05T22:28:48.509Z,13.80
2023-10-05T22:31:18.743Z,13.80
2023-10-05T22:33:45.923Z,13.80
2023-10-05T22:36:15.301Z,13.80
2023-10-05T22:38:44.771Z,13.80
2023-10-05T22:41:12.512Z,13.80
2023-10-05T22:43:39.638Z,13.80
2023-10-05T22:46:16.826Z,13.80
2023-10-05T22:48:44.618Z,13.80
2023-10-05T22:51:15.601Z,13.80
2023-10-05T22:53:42.869Z,13.80
2023-10-05T22:56:09.955Z,13.90
2023-10-05T22:58:37.391Z,13.80
2023-10-05T23:01:04.673Z,13.90
2023-10-05T23:03:33.615Z,13.90
2023-10-05T23:06:00.920Z,13.90
2023-10-05T23:08:28.372Z,13.90
2023-10-05T23:10:56.563Z,13.90
2023-10-05T23:13:25.432Z,13.90
2023-10-05T23:15:52.885Z,14.00
2023-10-05T23:18:20.314Z,14.00
2023-10-05T23:20:50.509Z,14.00
2023-10-05T23:23:19.199Z,14.00
2023-10-05T23:25:46.332Z,14.00
2023-10-05T23:28:16.817Z,14.00
2023-10-05T23:30:47.539Z,14.10
2023-10-05T23:33:14.802Z,14.10
2023-10-05T23:35:42.117Z,14.10
2023-10-05T23:38:14.333Z,14.10
2023-10-05T23:40:45.177Z,14.10
2023-10-05T23:43:17.853Z,14.10
2023-10-05T23:45:48.081Z,14.10
2023-10-05T23:48:15.862Z,14.10
2023-10-05T23:50:43.189Z,14.20
2023-10-05T23:53:11.587Z,14.20
2023-10-05T23:55:45.254Z,14.20
2023-10-05T23:58:17.203Z,14.20
